sensor_id;sensor_type;location;lat;lon;timestamp;P1;durP1;ratioP1;P2;durP2;ratioP2
22129;SDS011;11231;50.746;4.272;2023-05-07T00:00:02;14.87;;;5.83;;
22129;SDS011;11231;50.746;4.272;2023-05-07T00:02:33;13.97;;;4.93;;
22129;SDS011;11231;50.746;4.272;2023-05-07T00:04:59;16.30;;;5.60;;
22129;SDS011;11231;50.746;4.272;2023-05-07T00:07:25;16.47;;;5.30;;
22129;SDS011;11231;50.746;4.272;2023-05-07T00:09:51;13.77;;;5.30;;
22129;SDS011;11231;50.746;4.272;2023-05-07T00:12:17;15.60;;;5.20;;
22129;SDS011;11231;50.746;4.272;2023-05-07T00:14:42;18.17;;;5.30;;
22129;SDS011;11231;50.746;4.272;2023-05-07T00:17:08;14.40;;;5.00;;
22129;SDS011;11231;50.746;4.272;2023-05-07T00:19:34;16.30;;;5.57;;
22129;SDS011;11231;50.746;4.272;2023-05-07T00:22:00;13.90;;;4.60;;
22129;SDS011;11231;50.746;4.272;2023-05-07T00:24:26;14.53;;;4.93;;
22129;SDS011;11231;50.746;4.272;2023-05-07T00:26:51;12.50;;;4.83;;
22129;SDS011;11231;50.746;4.272;2023-05-07T00:29:18;14.60;;;5.03;;
22129;SDS011;11231;50.746;4.272;2023-05-07T00:31:43;18.37;;;5.43;;
22129;SDS011;11231;50.746;4.272;2023-05-07T00:34:09;17.03;;;4.87;;
22129;SDS011;11231;50.746;4.272;2023-05-07T00:36:35;16.03;;;5.20;;
22129;SDS011;11231;50.746;4.272;2023-05-07T00:39:01;17.57;;;5.73;;
22129;SDS011;11231;50.746;4.272;2023-05-07T00:41:29;12.07;;;4.90;;
22129;SDS011;11231;50.746;4.272;2023-05-07T00:43:58;11.47;;;5.13;;
22129;SDS011;11231;50.746;4.272;2023-05-07T00:46:23;16.83;;;5.67;;
22129;SDS011;11231;50.746;4.272;2023-05-07T00:48:50;14.07;;;5.27;;
22129;SDS011;11231;50.746;4.272;2023-05-07T00:51:17;15.60;;;5.07;;
22129;SDS011;11231;50.746;4.272;2023-05-07T00:53:43;16.77;;;5.30;;
22129;SDS011;11231;50.746;4.272;2023-05-07T00:56:09;15.50;;;5.60;;
22129;SDS011;11231;50.746;4.272;2023-05-07T00:58:36;16.07;;;5.13;;
22129;SDS011;11231;50.746;4.272;2023-05-07T01:01:04;15.20;;;4.97;;
22129;SDS011;11231;50.746;4.272;2023-05-07T01:03:30;16.03;;;5.53;;
22129;SDS011;11231;50.746;4.272;2023-05-07T01:05:56;19.90;;;5.90;;
22129;SDS011;11231;50.746;4.272;2023-05-07T01:08:23;15.50;;;5.63;;
22129;SDS011;11231;50.746;4.272;2023-05-07T01:10:52;15.90;;;5.70;;
22129;SDS011;11231;50.746;4.272;2023-05-07T01:13:18;14.13;;;5.03;;
22129;SDS011;11231;50.746;4.272;2023-05-07T01:15:45;17.40;;;5.47;;
22129;SDS011;11231;50.746;4.272;2023-05-07T01:18:11;17.00;;;5.50;;
22129;SDS011;11231;50.746;4.272;2023-05-07T01:20:38;12.33;;;5.00;;
22129;SDS011;11231;50.746;4.272;2023-05-07T01:23:04;14.30;;;5.50;;
22129;SDS011;11231;50.746;4.272;2023-05-07T01:25:32;17.07;;;5.77;;
22129;SDS011;11231;50.746;4.272;2023-05-07T01:28:00;15.60;;;5.30;;
22129;SDS011;11231;50.746;4.272;2023-05-07T01:30:29;17.30;;;5.80;;
22129;SDS011;11231;50.746;4.272;2023-05-07T01:33:00;17.13;;;6.07;;
22129;SDS011;11231;50.746;4.272;2023-05-07T01:35:34;13.27;;;5.27;;
22129;SDS011;11231;50.746;4.272;2023-05-07T01:38:03;14.03;;;4.80;;
22129;SDS011;11231;50.746;4.272;2023-05-07T01:40:31;16.53;;;5.20;;
22129;SDS011;11231;50.746;4.272;2023-05-07T01:42:57;17.77;;;5.50;;
22129;SDS011;11231;50.746;4.272;2023-05-07T01:45:23;17.27;;;5.33;;
22129;SDS011;11231;50.746;4.272;2023-05-07T01:47:50;13.33;;;5.77;;
22129;SDS011;11231;50.746;4.272;2023-05-07T01:50:18;18.63;;;5.63;;
22129;SDS011;11231;50.746;4.272;2023-05-07T01:52:45;17.30;;;5.30;;
22129;SDS011;11231;50.746;4.272;2023-05-07T01:55:12;15.60;;;6.13;;
22129;SDS011;11231;50.746;4.272;2023-05-07T01:57:38;14.87;;;5.70;;
22129;SDS011;11231;50.746;4.272;2023-05-07T02:00:04;15.57;;;6.20;;
22129;SDS011;11231;50.746;4.272;2023-05-07T02:02:40;16.07;;;5.93;;
22129;SDS011;11231;50.746;4.272;2023-05-07T02:05:12;14.53;;;5.70;;
22129;SDS011;11231;50.746;4.272;2023-05-07T02:07:41;13.20;;;5.57;;
22129;SDS011;11231;50.746;4.272;2023-05-07T02:10:07;17.17;;;6.20;;
22129;SDS011;11231;50.746;4.272;2023-05-07T02:12:33;16.63;;;5.93;;
22129;SDS011;11231;50.746;4.272;2023-05-07T02:14:59;13.60;;;5.60;;
22129;SDS011;11231;50.746;4.272;2023-05-07T02:17:25;17.17;;;6.20;;
22129;SDS011;11231;50.746;4.272;2023-05-07T02:19:51;17.13;;;6.00;;
22129;SDS011;11231;50.746;4.272;2023-05-07T02:22:17;13.70;;;5.50;;
22129;SDS011;11231;50.746;4.272;2023-05-07T02:24:43;13.63;;;5.90;;
22129;SDS011;11231;50.746;4.272;2023-05-07T02:27:09;15.50;;;5.57;;
22129;SDS011;11231;50.746;4.272;2023-05-07T02:29:36;13.97;;;5.70;;
22129;SDS011;11231;50.746;4.272;2023-05-07T02:32:02;15.40;;;5.63;;
22129;SDS011;11231;50.746;4.272;2023-05-07T02:34:29;14.30;;;5.50;;
22129;SDS011;11231;50.746;4.272;2023-05-07T02:36:55;11.63;;;5.33;;
22129;SDS011;11231;50.746;4.272;2023-05-07T02:39:24;15.33;;;5.47;;
22129;SDS011;11231;50.746;4.272;2023-05-07T02:41:50;15.90;;;5.67;;
22129;SDS011;11231;50.746;4.272;2023-05-07T02:44:16;16.40;;;5.63;;
22129;SDS011;11231;50.746;4.272;2023-05-07T02:46:43;13.57;;;5.63;;
22129;SDS011;11231;50.746;4.272;2023-05-07T02:49:11;14.43;;;5.67;;
22129;SDS011;11231;50.746;4.272;2023-05-07T02:51:37;10.87;;;5.67;;
22129;SDS011;11231;50.746;4.272;2023-05-07T02:54:08;13.43;;;5.50;;
22129;SDS011;11231;50.746;4.272;2023-05-07T02:56:34;16.53;;;5.80;;
22129;SDS011;11231;50.746;4.272;2023-05-07T02:59:00;14.07;;;5.40;;
22129;SDS011;11231;50.746;4.272;2023-05-07T03:01:31;17.80;;;6.00;;
22129;SDS011;11231;50.746;4.272;2023-05-07T03:04:01;16.77;;;5.77;;
22129;SDS011;11231;50.746;4.272;2023-05-07T03:06:26;13.57;;;5.50;;
22129;SDS011;11231;50.746;4.272;2023-05-07T03:08:55;11.87;;;5.10;;
22129;SDS011;11231;50.746;4.272;2023-05-07T03:11:21;16.27;;;5.60;;
22129;SDS011;11231;50.746;4.272;2023-05-07T03:13:46;13.10;;;5.27;;
22129;SDS011;11231;50.746;4.272;2023-05-07T03:16:14;13.70;;;5.40;;
22129;SDS011;11231;50.746;4.272;2023-05-07T03:18:40;14.67;;;5.43;;
22129;SDS011;11231;50.746;4.272;2023-05-07T03:21:06;12.47;;;5.33;;
22129;SDS011;11231;50.746;4.272;2023-05-07T03:23:32;14.07;;;5.00;;
22129;SDS011;11231;50.746;4.272;2023-05-07T03:25:57;10.60;;;5.27;;
22129;SDS011;11231;50.746;4.272;2023-05-07T03:28:23;15.00;;;5.30;;
22129;SDS011;11231;50.746;4.272;2023-05-07T03:30:54;14.53;;;5.00;;
22129;SDS011;11231;50.746;4.272;2023-05-07T03:33:21;12.43;;;5.43;;
22129;SDS011;11231;50.746;4.272;2023-05-07T03:35:47;12.90;;;5.13;;
22129;SDS011;11231;50.746;4.272;2023-05-07T03:38:18;14.87;;;5.17;;
22129;SDS011;11231;50.746;4.272;2023-05-07T03:40:44;13.33;;;5.00;;
22129;SDS011;11231;50.746;4.272;2023-05-07T03:43:10;13.53;;;5.03;;
22129;SDS011;11231;50.746;4.272;2023-05-07T03:45:39;14.43;;;4.83;;
22129;SDS011;11231;50.746;4.272;2023-05-07T03:48:13;11.97;;;5.07;;
22129;SDS011;11231;50.746;4.272;2023-05-07T03:50:39;12.10;;;4.87;;
22129;SDS011;11231;50.746;4.272;2023-05-07T03:53:06;9.87;;;4.73;;
22129;SDS011;11231;50.746;4.272;2023-05-07T03:55:36;9.60;;;4.40;;
22129;SDS011;11231;50.746;4.272;2023-05-07T03:58:02;14.90;;;5.50;;
22129;SDS011;11231;50.746;4.272;2023-05-07T04:00:28;18.50;;;5.37;;
22129;SDS011;11231;50.746;4.272;2023-05-07T04:02:58;9.43;;;4.70;;
22129;SDS011;11231;50.746;4.272;2023-05-07T04:05:27;12.77;;;4.87;;
22129;SDS011;11231;50.746;4.272;2023-05-07T04:07:58;11.33;;;5.30;;
22129;SDS011;11231;50.746;4.272;2023-05-07T04:10:35;13.27;;;4.77;;
22129;SDS011;11231;50.746;4.272;2023-05-07T04:13:05;11.13;;;4.77;;
22129;SDS011;11231;50.746;4.272;2023-05-07T04:15:32;12.10;;;4.37;;
22129;SDS011;11231;50.746;4.272;2023-05-07T04:17:58;13.73;;;5.00;;
22129;SDS011;11231;50.746;4.272;2023-05-07T04:20:24;14.67;;;5.33;;
22129;SDS011;11231;50.746;4.272;2023-05-07T04:22:57;12.60;;;4.90;;
22129;SDS011;11231;50.746;4.272;2023-05-07T04:25:23;13.43;;;5.00;;
22129;SDS011;11231;50.746;4.272;2023-05-07T04:27:53;12.17;;;4.90;;
22129;SDS011;11231;50.746;4.272;2023-05-07T04:30:19;15.37;;;5.27;;
22129;SDS011;11231;50.746;4.272;2023-05-07T04:32:44;14.87;;;5.63;;
22129;SDS011;11231;50.746;4.272;2023-05-07T04:35:10;17.60;;;5.67;;
22129;SDS011;11231;50.746;4.272;2023-05-07T04:37:37;14.53;;;5.37;;
22129;SDS011;11231;50.746;4.272;2023-05-07T04:40:04;13.27;;;5.33;;
22129;SDS011;11231;50.746;4.272;2023-05-07T04:42:30;14.17;;;4.97;;
22129;SDS011;11231;50.746;4.272;2023-05-07T04:44:57;15.33;;;5.13;;
22129;SDS011;11231;50.746;4.272;2023-05-07T04:47:23;13.60;;;5.03;;
22129;SDS011;11231;50.746;4.272;2023-05-07T04:49:50;13.60;;;5.13;;
22129;SDS011;11231;50.746;4.272;2023-05-07T04:52:15;11.27;;;4.97;;
22129;SDS011;11231;50.746;4.272;2023-05-07T04:54:42;13.27;;;4.90;;
22129;SDS011;11231;50.746;4.272;2023-05-07T04:57:08;13.70;;;4.80;;
22129;SDS011;11231;50.746;4.272;2023-05-07T04:59:34;12.50;;;4.87;;
22129;SDS011;11231;50.746;4.272;2023-05-07T05:02:00;11.40;;;4.50;;
22129;SDS011;11231;50.746;4.272;2023-05-07T05:04:26;15.37;;;5.13;;
22129;SDS011;11231;50.746;4.272;2023-05-07T05:06:53;11.57;;;4.80;;
22129;SDS011;11231;50.746;4.272;2023-05-07T05:09:18;15.57;;;5.33;;
22129;SDS011;11231;50.746;4.272;2023-05-07T05:11:45;14.13;;;4.60;;
22129;SDS011;11231;50.746;4.272;2023-05-07T05:14:10;11.87;;;4.83;;
22129;SDS011;11231;50.746;4.272;2023-05-07T05:16:39;13.63;;;5.00;;
22129;SDS011;11231;50.746;4.272;2023-05-07T05:19:05;11.80;;;4.70;;
22129;SDS011;11231;50.746;4.272;2023-05-07T05:21:34;14.87;;;4.93;;
22129;SDS011;11231;50.746;4.272;2023-05-07T05:24:05;11.33;;;4.73;;
22129;SDS011;11231;50.746;4.272;2023-05-07T05:26:31;11.00;;;5.30;;
22129;SDS011;11231;50.746;4.272;2023-05-07T05:28:57;11.20;;;4.97;;
22129;SDS011;11231;50.746;4.272;2023-05-07T05:31:25;10.10;;;4.37;;
22129;SDS011;11231;50.746;4.272;2023-05-07T05:33:51;12.20;;;5.33;;
22129;SDS011;11231;50.746;4.272;2023-05-07T05:36:17;11.40;;;5.17;;
22129;SDS011;11231;50.746;4.272;2023-05-07T05:38:44;16.80;;;5.93;;
22129;SDS011;11231;50.746;4.272;2023-05-07T05:41:11;13.53;;;5.20;;
22129;SDS011;11231;50.746;4.272;2023-05-07T05:43:37;16.63;;;5.63;;
22129;SDS011;11231;50.746;4.272;2023-05-07T05:46:03;17.87;;;5.87;;
22129;SDS011;11231;50.746;4.272;2023-05-07T05:48:29;15.03;;;5.40;;
22129;SDS011;11231;50.746;4.272;2023-05-07T05:50:57;13.77;;;6.07;;
22129;SDS011;11231;50.746;4.272;2023-05-07T05:53:23;14.30;;;5.50;;
22129;SDS011;11231;50.746;4.272;2023-05-07T05:55:49;15.03;;;5.23;;
22129;SDS011;11231;50.746;4.272;2023-05-07T05:58:16;16.10;;;5.63;;
22129;SDS011;11231;50.746;4.272;2023-05-07T06:00:49;15.20;;;5.77;;
22129;SDS011;11231;50.746;4.272;2023-05-07T06:03:17;14.17;;;5.60;;
22129;SDS011;11231;50.746;4.272;2023-05-07T06:05:46;15.23;;;5.53;;
22129;SDS011;11231;50.746;4.272;2023-05-07T06:08:13;10.73;;;4.57;;
22129;SDS011;11231;50.746;4.272;2023-05-07T06:10:39;14.30;;;5.90;;
22129;SDS011;11231;50.746;4.272;2023-05-07T06:13:07;16.70;;;6.00;;
22129;SDS011;11231;50.746;4.272;2023-05-07T06:15:35;14.67;;;5.70;;
22129;SDS011;11231;50.746;4.272;2023-05-07T06:18:06;16.03;;;5.93;;
22129;SDS011;11231;50.746;4.272;2023-05-07T06:20:32;13.93;;;6.10;;
22129;SDS011;11231;50.746;4.272;2023-05-07T06:22:59;17.33;;;6.07;;
22129;SDS011;11231;50.746;4.272;2023-05-07T06:25:26;15.10;;;5.60;;
22129;SDS011;11231;50.746;4.272;2023-05-07T06:27:52;17.07;;;5.77;;
22129;SDS011;11231;50.746;4.272;2023-05-07T06:30:18;16.87;;;5.83;;
22129;SDS011;11231;50.746;4.272;2023-05-07T06:32:44;17.07;;;6.30;;
22129;SDS011;11231;50.746;4.272;2023-05-07T06:35:13;14.37;;;5.97;;
22129;SDS011;11231;50.746;4.272;2023-05-07T06:37:40;16.57;;;6.20;;
22129;SDS011;11231;50.746;4.272;2023-05-07T06:40:11;13.97;;;5.80;;
22129;SDS011;11231;50.746;4.272;2023-05-07T06:42:38;15.47;;;5.93;;
22129;SDS011;11231;50.746;4.272;2023-05-07T06:45:22;14.60;;;6.60;;
22129;SDS011;11231;50.746;4.272;2023-05-07T06:47:49;13.30;;;5.57;;
22129;SDS011;11231;50.746;4.272;2023-05-07T06:50:15;16.97;;;6.10;;
22129;SDS011;11231;50.746;4.272;2023-05-07T06:52:43;16.63;;;6.63;;
22129;SDS011;11231;50.746;4.272;2023-05-07T06:55:09;14.63;;;6.43;;
22129;SDS011;11231;50.746;4.272;2023-05-07T06:57:36;15.87;;;6.53;;
22129;SDS011;11231;50.746;4.272;2023-05-07T07:00:03;16.83;;;6.67;;
22129;SDS011;11231;50.746;4.272;2023-05-07T07:02:39;14.60;;;6.03;;
22129;SDS011;11231;50.746;4.272;2023-05-07T07:05:05;12.97;;;5.93;;
22129;SDS011;11231;50.746;4.272;2023-05-07T07:07:32;12.60;;;5.93;;
22129;SDS011;11231;50.746;4.272;2023-05-07T07:09:57;14.33;;;5.60;;
22129;SDS011;11231;50.746;4.272;2023-05-07T07:12:23;16.40;;;6.43;;
22129;SDS011;11231;50.746;4.272;2023-05-07T07:14:51;17.07;;;6.67;;
22129;SDS011;11231;50.746;4.272;2023-05-07T07:17:17;13.47;;;6.07;;
22129;SDS011;11231;50.746;4.272;2023-05-07T07:19:42;13.70;;;6.13;;
22129;SDS011;11231;50.746;4.272;2023-05-07T07:22:09;21.17;;;7.20;;
22129;SDS011;11231;50.746;4.272;2023-05-07T07:24:35;15.53;;;6.70;;
22129;SDS011;11231;50.746;4.272;2023-05-07T07:27:04;13.93;;;6.33;;
22129;SDS011;11231;50.746;4.272;2023-05-07T07:29:32;16.57;;;6.50;;
22129;SDS011;11231;50.746;4.272;2023-05-07T07:31:58;15.57;;;6.50;;
22129;SDS011;11231;50.746;4.272;2023-05-07T07:34:24;15.97;;;6.33;;
22129;SDS011;11231;50.746;4.272;2023-05-07T07:36:50;12.83;;;6.23;;
22129;SDS011;11231;50.746;4.272;2023-05-07T07:39:17;17.87;;;6.50;;
22129;SDS011;11231;50.746;4.272;2023-05-07T07:41:45;17.13;;;6.30;;
22129;SDS011;11231;50.746;4.272;2023-05-07T07:44:11;14.10;;;6.60;;
22129;SDS011;11231;50.746;4.272;2023-05-07T07:46:39;12.40;;;5.73;;
22129;SDS011;11231;50.746;4.272;2023-05-07T07:49:06;17.47;;;6.23;;
22129;SDS011;11231;50.746;4.272;2023-05-07T07:51:31;13.73;;;6.03;;
22129;SDS011;11231;50.746;4.272;2023-05-07T07:53:59;14.40;;;6.53;;
22129;SDS011;11231;50.746;4.272;2023-05-07T07:56:26;14.47;;;6.57;;
22129;SDS011;11231;50.746;4.272;2023-05-07T07:58:52;14.30;;;6.13;;
22129;SDS011;11231;50.746;4.272;2023-05-07T08:01:18;14.33;;;6.90;;
22129;SDS011;11231;50.746;4.272;2023-05-07T08:03:45;12.57;;;6.50;;
22129;SDS011;11231;50.746;4.272;2023-05-07T08:06:12;13.27;;;6.33;;
22129;SDS011;11231;50.746;4.272;2023-05-07T08:08:38;13.10;;;6.10;;
22129;SDS011;11231;50.746;4.272;2023-05-07T08:11:04;13.20;;;6.00;;
22129;SDS011;11231;50.746;4.272;2023-05-07T08:13:32;13.50;;;5.90;;
22129;SDS011;11231;50.746;4.272;2023-05-07T08:15:59;11.87;;;5.93;;
22129;SDS011;11231;50.746;4.272;2023-05-07T08:18:25;17.40;;;7.20;;
22129;SDS011;11231;50.746;4.272;2023-05-07T08:20:53;15.00;;;6.17;;
22129;SDS011;11231;50.746;4.272;2023-05-07T08:23:22;15.27;;;6.97;;
22129;SDS011;11231;50.746;4.272;2023-05-07T08:25:49;14.50;;;7.23;;
22129;SDS011;11231;50.746;4.272;2023-05-07T08:28:16;12.07;;;6.60;;
22129;SDS011;11231;50.746;4.272;2023-05-07T08:30:42;12.90;;;6.70;;
22129;SDS011;11231;50.746;4.272;2023-05-07T08:33:08;16.50;;;8.10;;
22129;SDS011;11231;50.746;4.272;2023-05-07T08:35:34;15.47;;;7.17;;
22129;SDS011;11231;50.746;4.272;2023-05-07T08:38:00;13.43;;;7.07;;
22129;SDS011;11231;50.746;4.272;2023-05-07T08:40:27;13.10;;;6.63;;
22129;SDS011;11231;50.746;4.272;2023-05-07T08:42:56;14.50;;;7.20;;
22129;SDS011;11231;50.746;4.272;2023-05-07T08:45:29;14.67;;;6.60;;
22129;SDS011;11231;50.746;4.272;2023-05-07T08:47:58;13.20;;;6.67;;
22129;SDS011;11231;50.746;4.272;2023-05-07T08:50:30;12.57;;;6.50;;
22129;SDS011;11231;50.746;4.272;2023-05-07T08:52:57;14.30;;;7.47;;
22129;SDS011;11231;50.746;4.272;2023-05-07T08:55:23;14.03;;;6.77;;
22129;SDS011;11231;50.746;4.272;2023-05-07T08:57:52;13.67;;;6.90;;
22129;SDS011;11231;50.746;4.272;2023-05-07T09:00:19;15.03;;;7.10;;
22129;SDS011;11231;50.746;4.272;2023-05-07T09:02:50;16.30;;;6.97;;
22129;SDS011;11231;50.746;4.272;2023-05-07T09:05:17;19.07;;;7.23;;
22129;SDS011;11231;50.746;4.272;2023-05-07T09:07:46;16.63;;;6.73;;
22129;SDS011;11231;50.746;4.272;2023-05-07T09:10:13;13.67;;;6.23;;
22129;SDS011;11231;50.746;4.272;2023-05-07T09:12:41;14.77;;;6.10;;
22129;SDS011;11231;50.746;4.272;2023-05-07T09:15:10;13.80;;;6.00;;
22129;SDS011;11231;50.746;4.272;2023-05-07T09:17:38;12.07;;;5.33;;
22129;SDS011;11231;50.746;4.272;2023-05-07T09:20:04;12.97;;;5.27;;
22129;SDS011;11231;50.746;4.272;2023-05-07T09:22:37;13.23;;;5.33;;
22129;SDS011;11231;50.746;4.272;2023-05-07T09:25:17;16.97;;;5.93;;
22129;SDS011;11231;50.746;4.272;2023-05-07T09:28:05;13.33;;;6.53;;
22129;SDS011;11231;50.746;4.272;2023-05-07T09:30:40;12.00;;;5.80;;
22129;SDS011;11231;50.746;4.272;2023-05-07T09:33:08;15.17;;;6.20;;
22129;SDS011;11231;50.746;4.272;2023-05-07T09:35:38;11.90;;;5.80;;
22129;SDS011;11231;50.746;4.272;2023-05-07T09:38:09;13.17;;;6.30;;
22129;SDS011;11231;50.746;4.272;2023-05-07T09:40:35;12.43;;;5.70;;
22129;SDS011;11231;50.746;4.272;2023-05-07T09:43:09;11.87;;;5.63;;
22129;SDS011;11231;50.746;4.272;2023-05-07T09:45:48;11.53;;;5.50;;
22129;SDS011;11231;50.746;4.272;2023-05-07T09:48:18;13.43;;;5.33;;
22129;SDS011;11231;50.746;4.272;2023-05-07T09:50:48;10.27;;;4.03;;
22129;SDS011;11231;50.746;4.272;2023-05-07T09:53:19;11.10;;;5.00;;
22129;SDS011;11231;50.746;4.272;2023-05-07T09:55:47;17.53;;;11.50;;
22129;SDS011;11231;50.746;4.272;2023-05-07T09:58:13;9.17;;;4.30;;
22129;SDS011;11231;50.746;4.272;2023-05-07T10:00:43;10.13;;;4.27;;
22129;SDS011;11231;50.746;4.272;2023-05-07T10:03:14;11.00;;;4.47;;
22129;SDS011;11231;50.746;4.272;2023-05-07T10:05:49;13.43;;;6.70;;
22129;SDS011;11231;50.746;4.272;2023-05-07T10:08:17;10.53;;;4.00;;
22129;SDS011;11231;50.746;4.272;2023-05-07T10:10:47;9.70;;;3.73;;
22129;SDS011;11231;50.746;4.272;2023-05-07T10:13:20;8.33;;;3.00;;
22129;SDS011;11231;50.746;4.272;2023-05-07T10:15:50;10.17;;;4.00;;
22129;SDS011;11231;50.746;4.272;2023-05-07T10:18:16;9.17;;;2.70;;
22129;SDS011;11231;50.746;4.272;2023-05-07T10:20:48;6.63;;;2.60;;
22129;SDS011;11231;50.746;4.272;2023-05-07T10:23:19;8.00;;;3.03;;
22129;SDS011;11231;50.746;4.272;2023-05-07T10:25:52;8.60;;;3.30;;
22129;SDS011;11231;50.746;4.272;2023-05-07T10:28:21;6.73;;;2.47;;
22129;SDS011;11231;50.746;4.272;2023-05-07T10:33:22;6.67;;;2.93;;
22129;SDS011;11231;50.746;4.272;2023-05-07T10:35:51;12.47;;;4.27;;
22129;SDS011;11231;50.746;4.272;2023-05-07T10:38:24;10.47;;;3.00;;
22129;SDS011;11231;50.746;4.272;2023-05-07T10:40:51;11.57;;;3.77;;
22129;SDS011;11231;50.746;4.272;2023-05-07T10:43:17;9.27;;;3.83;;
22129;SDS011;11231;50.746;4.272;2023-05-07T10:52:04;11.23;;;3.67;;
22129;SDS011;11231;50.746;4.272;2023-05-07T10:54:38;19.13;;;8.23;;
22129;SDS011;11231;50.746;4.272;2023-05-07T11:05:30;10.47;;;3.83;;
22129;SDS011;11231;50.746;4.272;2023-05-07T11:08:11;8.80;;;3.27;;
22129;SDS011;11231;50.746;4.272;2023-05-07T11:10:53;10.93;;;3.23;;
22129;SDS011;11231;50.746;4.272;2023-05-07T11:13:42;8.53;;;3.07;;
22129;SDS011;11231;50.746;4.272;2023-05-07T11:18:52;5.60;;;2.47;;
22129;SDS011;11231;50.746;4.272;2023-05-07T11:21:40;7.33;;;2.60;;
22129;SDS011;11231;50.746;4.272;2023-05-07T11:24:19;6.87;;;2.80;;
22129;SDS011;11231;50.746;4.272;2023-05-07T11:27:09;8.80;;;3.17;;
22129;SDS011;11231;50.746;4.272;2023-05-07T11:29:36;6.50;;;3.00;;
22129;SDS011;11231;50.746;4.272;2023-05-07T11:32:06;5.70;;;2.87;;
22129;SDS011;11231;50.746;4.272;2023-05-07T11:34:38;8.60;;;3.13;;
22129;SDS011;11231;50.746;4.272;2023-05-07T11:37:04;11.37;;;5.07;;
22129;SDS011;11231;50.746;4.272;2023-05-07T11:39:40;12.53;;;6.80;;
22129;SDS011;11231;50.746;4.272;2023-05-07T11:42:30;9.30;;;3.40;;
22129;SDS011;11231;50.746;4.272;2023-05-07T11:44:55;6.40;;;3.27;;
22129;SDS011;11231;50.746;4.272;2023-05-07T11:47:31;6.20;;;2.73;;
22129;SDS011;11231;50.746;4.272;2023-05-07T11:50:01;8.63;;;3.73;;
22129;SDS011;11231;50.746;4.272;2023-05-07T11:52:29;7.63;;;4.27;;
22129;SDS011;11231;50.746;4.272;2023-05-07T11:54:56;9.93;;;4.27;;
22129;SDS011;11231;50.746;4.272;2023-05-07T11:57:23;7.67;;;3.70;;
22129;SDS011;11231;50.746;4.272;2023-05-07T12:02:37;7.83;;;4.73;;
22129;SDS011;11231;50.746;4.272;2023-05-07T12:05:03;9.67;;;5.27;;
22129;SDS011;11231;50.746;4.272;2023-05-07T12:07:36;7.77;;;5.13;;
22129;SDS011;11231;50.746;4.272;2023-05-07T12:10:08;9.13;;;5.67;;
22129;SDS011;11231;50.746;4.272;2023-05-07T12:12:45;9.60;;;5.40;;
22129;SDS011;11231;50.746;4.272;2023-05-07T12:15:13;10.90;;;6.43;;
22129;SDS011;11231;50.746;4.272;2023-05-07T12:17:41;10.77;;;6.40;;
22129;SDS011;11231;50.746;4.272;2023-05-07T12:20:13;10.77;;;6.30;;
22129;SDS011;11231;50.746;4.272;2023-05-07T12:22:40;10.57;;;7.30;;
22129;SDS011;11231;50.746;4.272;2023-05-07T12:25:06;11.50;;;7.10;;
22129;SDS011;11231;50.746;4.272;2023-05-07T12:27:32;10.83;;;7.40;;
22129;SDS011;11231;50.746;4.272;2023-05-07T12:30:02;12.63;;;8.40;;
22129;SDS011;11231;50.746;4.272;2023-05-07T12:32:28;11.73;;;8.32;;
22129;SDS011;11231;50.746;4.272;2023-05-07T12:34:54;14.07;;;9.03;;
22129;SDS011;11231;50.746;4.272;2023-05-07T12:37:23;13.13;;;9.50;;
22129;SDS011;11231;50.746;4.272;2023-05-07T12:40:06;14.37;;;10.00;;
22129;SDS011;11231;50.746;4.272;2023-05-07T12:42:36;13.70;;;9.30;;
22129;SDS011;11231;50.746;4.272;2023-05-07T12:48:01;12.77;;;8.60;;
22129;SDS011;11231;50.746;4.272;2023-05-07T12:50:30;12.50;;;8.77;;
22129;SDS011;11231;50.746;4.272;2023-05-07T12:53:04;14.17;;;9.03;;
22129;SDS011;11231;50.746;4.272;2023-05-07T12:55:31;13.73;;;9.37;;
22129;SDS011;11231;50.746;4.272;2023-05-07T12:58:05;13.07;;;9.43;;
22129;SDS011;11231;50.746;4.272;2023-05-07T13:00:35;15.83;;;10.00;;
22129;SDS011;11231;50.746;4.272;2023-05-07T13:03:05;14.43;;;9.80;;
22129;SDS011;11231;50.746;4.272;2023-05-07T13:05:31;14.40;;;9.97;;
22129;SDS011;11231;50.746;4.272;2023-05-07T13:07:57;13.93;;;10.17;;
22129;SDS011;11231;50.746;4.272;2023-05-07T13:10:23;13.00;;;9.37;;
22129;SDS011;11231;50.746;4.272;2023-05-07T13:12:50;13.20;;;8.67;;
22129;SDS011;11231;50.746;4.272;2023-05-07T13:15:16;10.23;;;7.77;;
22129;SDS011;11231;50.746;4.272;2023-05-07T13:17:42;12.30;;;8.63;;
22129;SDS011;11231;50.746;4.272;2023-05-07T13:20:09;13.20;;;9.00;;
22129;SDS011;11231;50.746;4.272;2023-05-07T13:22:39;12.93;;;8.90;;
22129;SDS011;11231;50.746;4.272;2023-05-07T13:25:05;12.30;;;9.10;;
22129;SDS011;11231;50.746;4.272;2023-05-07T13:27:31;13.43;;;8.50;;
22129;SDS011;11231;50.746;4.272;2023-05-07T13:30:00;11.30;;;8.03;;
22129;SDS011;11231;50.746;4.272;2023-05-07T13:32:26;10.67;;;7.10;;
22129;SDS011;11231;50.746;4.272;2023-05-07T13:34:52;10.60;;;7.47;;
22129;SDS011;11231;50.746;4.272;2023-05-07T13:37:17;11.17;;;7.00;;
22129;SDS011;11231;50.746;4.272;2023-05-07T13:39:43;10.73;;;6.93;;
22129;SDS011;11231;50.746;4.272;2023-05-07T13:42:09;11.27;;;6.77;;
22129;SDS011;11231;50.746;4.272;2023-05-07T13:44:35;11.33;;;6.90;;
22129;SDS011;11231;50.746;4.272;2023-05-07T13:47:07;9.27;;;7.00;;
22129;SDS011;11231;50.746;4.272;2023-05-07T13:49:33;8.93;;;6.77;;
22129;SDS011;11231;50.746;4.272;2023-05-07T13:51:58;20.90;;;13.63;;
22129;SDS011;11231;50.746;4.272;2023-05-07T13:54:24;10.43;;;7.17;;
22129;SDS011;11231;50.746;4.272;2023-05-07T13:56:50;11.33;;;8.00;;
22129;SDS011;11231;50.746;4.272;2023-05-07T13:59:16;11.47;;;8.07;;
22129;SDS011;11231;50.746;4.272;2023-05-07T14:01:42;15.63;;;8.27;;
22129;SDS011;11231;50.746;4.272;2023-05-07T14:04:08;11.63;;;8.80;;
22129;SDS011;11231;50.746;4.272;2023-05-07T14:06:34;13.67;;;9.23;;
22129;SDS011;11231;50.746;4.272;2023-05-07T14:08:59;13.07;;;9.57;;
22129;SDS011;11231;50.746;4.272;2023-05-07T14:11:25;11.30;;;8.70;;
22129;SDS011;11231;50.746;4.272;2023-05-07T14:13:51;11.10;;;8.10;;
22129;SDS011;11231;50.746;4.272;2023-05-07T14:16:16;10.70;;;8.17;;
22129;SDS011;11231;50.746;4.272;2023-05-07T14:18:42;11.23;;;8.20;;
22129;SDS011;11231;50.746;4.272;2023-05-07T14:21:08;13.00;;;9.70;;
22129;SDS011;11231;50.746;4.272;2023-05-07T14:23:34;12.57;;;9.03;;
22129;SDS011;11231;50.746;4.272;2023-05-07T14:26:01;13.63;;;9.07;;
22129;SDS011;11231;50.746;4.272;2023-05-07T14:28:26;12.33;;;9.07;;
22129;SDS011;11231;50.746;4.272;2023-05-07T14:30:52;13.63;;;9.13;;
22129;SDS011;11231;50.746;4.272;2023-05-07T14:33:18;14.23;;;9.97;;
22129;SDS011;11231;50.746;4.272;2023-05-07T14:35:44;12.67;;;9.80;;
22129;SDS011;11231;50.746;4.272;2023-05-07T14:38:13;12.93;;;9.17;;
22129;SDS011;11231;50.746;4.272;2023-05-07T14:40:40;12.70;;;9.13;;
22129;SDS011;11231;50.746;4.272;2023-05-07T14:43:06;13.53;;;10.10;;
22129;SDS011;11231;50.746;4.272;2023-05-07T14:45:31;13.47;;;9.87;;
22129;SDS011;11231;50.746;4.272;2023-05-07T14:47:57;13.20;;;9.80;;
22129;SDS011;11231;50.746;4.272;2023-05-07T14:50:23;13.37;;;9.73;;
22129;SDS011;11231;50.746;4.272;2023-05-07T14:52:49;12.77;;;8.67;;
22129;SDS011;11231;50.746;4.272;2023-05-07T14:55:15;14.07;;;8.63;;
22129;SDS011;11231;50.746;4.272;2023-05-07T14:57:40;12.83;;;8.20;;
22129;SDS011;11231;50.746;4.272;2023-05-07T15:00:06;11.87;;;8.13;;
22129;SDS011;11231;50.746;4.272;2023-05-07T15:02:33;12.73;;;7.77;;
22129;SDS011;11231;50.746;4.272;2023-05-07T15:04:59;12.53;;;7.33;;